Time;durP1;ratioP1;P1;durP2;ratioP2;P2;SDS_P1;SDS_P2;PMS_P1;PMS_P2;Temp;Humidity;BMP_temperature;BMP_pressure;BME280_temperature;BME280_humidity;BME280_pressure;Samples;Min_cycle;Max_cycle;Signal;HPM_P1;HPM_P2
2024/01/10 00:01:43;;;;;;;18.65;13.00;;;-4.00;66.50;;;;;;5070786;28;20021;-90
2024/01/10 00:04:09;;;;;;;18.05;12.70;;;-4.10;66.50;;;;;;5056453;28;20021;-90
2024/01/10 00:06:34;;;;;;;22.73;13.73;;;-4.00;66.30;;;;;;5074184;28;20025;-91
2024/01/10 00:09:00;;;;;;;15.85;11.73;;;-4.00;66.90;;;;;;5058296;28;20068;-92
2024/01/10 00:11:26;;;;;;;16.90;10.35;;;-4.00;66.70;;;;;;5074979;28;20029;-90
2024/01/10 00:13:51;;;;;;;23.80;13.40;;;-4.00;66.90;;;;;;5073710;28;20039;-91
2024/01/10 00:16:17;;;;;;;20.98;12.70;;;-4.00;67.10;;;;;;5055215;28;20104;-90
2024/01/10 00:18:43;;;;;;;17.75;11.55;;;-4.00;66.90;;;;;;5073111;28;20029;-88
2024/01/10 00:21:10;;;;;;;18.95;14.35;;;-4.10;67.50;;;;;;5057195;28;20021;-92
2024/01/10 00:23:35;;;;;;;18.05;10.77;;;-4.00;67.50;;;;;;5074855;28;20075;-90
2024/01/10 00:26:01;;;;;;;16.83;11.55;;;-4.00;67.50;;;;;;5069792;28;20033;-90
2024/01/10 00:28:27;;;;;;;20.10;11.27;;;-4.00;67.00;;;;;;5095611;28;20403;-90
2024/01/10 00:30:52;;;;;;;17.52;12.15;;;-4.00;66.80;;;;;;5096409;28;20021;-90
2024/01/10 00:33:18;;;;;;;16.55;12.88;;;-4.00;66.50;;;;;;5080992;28;20028;-92
2024/01/10 00:35:44;;;;;;;19.95;11.75;;;-4.00;66.70;;;;;;5060924;28;20029;-90
2024/01/10 00:38:10;;;;;;;18.88;13.93;;;-3.90;66.70;;;;;;5086344;28;20033;-91
2024/01/10 00:40:36;;;;;;;19.70;12.82;;;-4.00;67.50;;;;;;5061227;28;20027;-93
2024/01/10 00:43:03;;;;;;;16.88;11.15;;;-3.90;66.10;;;;;;5092277;28;20028;-91
2024/01/10 00:45:29;;;;;;;18.42;12.70;;;-3.90;66.50;;;;;;5058200;28;20084;-91
2024/01/10 00:47:55;;;;;;;21.08;12.32;;;-3.90;66.20;;;;;;5057544;28;20017;-91
2024/01/10 00:50:21;;;;;;;21.73;12.88;;;-3.90;66.30;;;;;;5074216;28;20029;-90
2024/01/10 00:52:46;;;;;;;16.25;11.27;;;-3.90;66.00;;;;;;5072755;28;20052;-90
2024/01/10 00:55:12;;;;;;;20.00;11.57;;;-3.90;66.10;;;;;;5080635;28;20036;-90
2024/01/10 00:57:39;;;;;;;20.42;12.35;;;-3.90;65.20;;;;;;5077046;28;20020;-91
2024/01/10 01:00:10;;;;;;;21.20;12.43;;;-3.80;66.00;;;;;;5076971;28;20024;-92
2024/01/10 01:02:39;;;;;;;21.30;13.82;;;-3.90;65.80;;;;;;5070316;28;20021;-92
2024/01/10 01:05:07;;;;;;;16.20;13.52;;;-3.90;65.30;;;;;;5078947;28;20021;-91
2024/01/10 01:07:32;;;;;;;17.58;13.60;;;-3.80;65.20;;;;;;5077971;28;20036;-93
2024/01/10 01:09:58;;;;;;;21.30;13.35;;;-3.90;65.20;;;;;;5057959;28;20029;-91
2024/01/10 01:12:24;;;;;;;24.05;13.52;;;-3.80;65.00;;;;;;5075512;28;20056;-91
2024/01/10 01:14:50;;;;;;;20.48;12.10;;;-3.80;64.50;;;;;;5087196;28;20008;-91
2024/01/10 01:17:15;;;;;;;18.65;11.93;;;-3.80;64.80;;;;;;5094183;28;20040;-91
2024/01/10 01:19:41;;;;;;;15.38;11.88;;;-3.80;64.80;;;;;;5095459;28;20054;-91
2024/01/10 01:22:07;;;;;;;20.92;13.45;;;-3.80;64.20;;;;;;5089584;28;20029;-90
2024/01/10 01:24:32;;;;;;;23.92;13.35;;;-3.80;64.30;;;;;;5089166;28;20032;-89
2024/01/10 01:26:58;;;;;;;20.15;12.40;;;-3.70;64.90;;;;;;5083016;28;20025;-93
2024/01/10 01:29:24;;;;;;;23.58;13.05;;;-3.70;64.80;;;;;;5074692;28;20029;-89
2024/01/10 01:31:50;;;;;;;20.55;11.85;;;-3.70;64.40;;;;;;5078426;28;20015;-91
2024/01/10 01:34:15;;;;;;;22.98;13.82;;;-3.70;64.40;;;;;;5094571;28;20031;-89
2024/01/10 01:36:41;;;;;;;17.45;12.27;;;-3.70;64.30;;;;;;5075291;28;20028;-92
2024/01/10 01:39:07;;;;;;;21.25;12.18;;;-3.70;65.10;;;;;;5074639;28;20028;-91
2024/01/10 01:41:32;;;;;;;23.80;13.15;;;-3.70;65.30;;;;;;5089398;28;20454;-90
2024/01/10 01:43:58;;;;;;;23.05;13.20;;;-3.70;65.20;;;;;;5074442;28;20013;-92
2024/01/10 01:46:24;;;;;;;19.85;13.65;;;-3.80;65.40;;;;;;5089242;28;20025;-90
2024/01/10 01:48:52;;;;;;;22.45;13.75;;;-3.80;64.90;;;;;;5073464;28;20036;-89
2024/01/10 01:51:20;;;;;;;20.52;13.23;;;-3.70;65.40;;;;;;5074113;28;20048;-89
2024/01/10 01:53:48;;;;;;;18.65;12.45;;;-3.80;65.50;;;;;;5076795;28;20024;-90
2024/01/10 01:56:14;;;;;;;21.73;13.07;;;-3.80;65.00;;;;;;5059676;28;20009;-89
2024/01/10 01:58:40;;;;;;;21.50;13.45;;;-3.80;64.60;;;;;;5085075;28;20040;-89
2024/01/10 02:01:06;;;;;;;23.25;13.80;;;-3.80;64.40;;;;;;5075964;28;20017;-91
2024/01/10 02:03:32;;;;;;;25.83;14.63;;;-3.80;64.90;;;;;;5076660;28;20035;-91
2024/01/10 02:05:59;;;;;;;23.02;15.13;;;-3.80;64.70;;;;;;5075281;28;20110;-91
2024/01/10 02:08:25;;;;;;;25.88;13.32;;;-3.80;64.70;;;;;;5076150;28;20051;-89
2024/01/10 02:10:50;;;;;;;20.50;13.45;;;-3.80;64.40;;;;;;5060106;28;20036;-92
2024/01/10 02:13:17;;;;;;;29.33;14.35;;;-3.80;64.50;;;;;;5080265;28;20031;-90
2024/01/10 02:15:43;;;;;;;24.10;14.25;;;-3.80;64.50;;;;;;5097153;28;20013;-92
2024/01/10 02:18:12;;;;;;;24.38;14.73;;;-3.80;64.50;;;;;;5080854;28;20104;-88
2024/01/10 02:20:38;;;;;;;25.40;13.02;;;-3.80;64.40;;;;;;5079531;28;20084;-91
2024/01/10 02:23:04;;;;;;;22.13;12.88;;;-3.80;64.70;;;;;;5086406;28;20020;-90
2024/01/10 02:25:29;;;;;;;20.83;14.10;;;-3.80;64.40;;;;;;5077613;28;20005;-92
2024/01/10 02:27:55;;;;;;;19.42;12.80;;;-3.80;65.20;;;;;;5075555;28;20056;-93
2024/01/10 02:30:21;;;;;;;21.40;13.15;;;-3.70;64.50;;;;;;5056266;28;20029;-92
2024/01/10 02:32:50;;;;;;;23.50;12.57;;;-3.70;65.00;;;;;;5080717;28;20032;-89
2024/01/10 02:35:16;;;;;;;25.13;13.85;;;-3.80;64.50;;;;;;5074448;28;20028;-90
2024/01/10 02:37:41;;;;;;;26.83;14.38;;;-3.70;64.50;;;;;;5055209;28;20024;-91
2024/01/10 02:40:08;;;;;;;20.77;10.10;;;-3.70;64.50;;;;;;5072386;28;20463;-92
2024/01/10 02:42:35;;;;;;;21.98;13.23;;;-3.70;64.60;;;;;;5054827;28;20014;-90
2024/01/10 02:45:02;;;;;;;27.80;14.45;;;-3.70;64.70;;;;;;5054129;28;20056;-90
2024/01/10 02:47:29;;;;;;;24.85;13.32;;;-3.80;64.70;;;;;;5071611;28;20036;-89
2024/01/10 02:49:54;;;;;;;21.42;11.23;;;-3.70;64.60;;;;;;5071705;28;20065;-91
2024/01/10 02:52:20;;;;;;;21.60;13.60;;;-3.70;64.70;;;;;;5072667;28;20044;-92
2024/01/10 02:54:46;;;;;;;25.88;14.38;;;-3.80;64.40;;;;;;5073113;28;20027;-88
2024/01/10 02:57:13;;;;;;;22.70;13.07;;;-3.70;64.40;;;;;;5079567;28;20024;-90
2024/01/10 02:59:39;;;;;;;20.83;12.80;;;-3.70;64.70;;;;;;5083010;28;20032;-90
2024/01/10 03:02:04;;;;;;;22.30;13.50;;;-3.70;65.10;;;;;;5056306;28;20005;-90
2024/01/10 03:04:30;;;;;;;23.30;15.85;;;-3.70;64.80;;;;;;5059744;28;20119;-89
2024/01/10 03:06:55;;;;;;;23.35;13.50;;;-3.70;64.90;;;;;;5059527;28;20048;-92
2024/01/10 03:09:23;;;;;;;22.17;11.93;;;-3.70;64.60;;;;;;5094479;28;20092;-89
2024/01/10 03:11:49;;;;;;;24.77;12.35;;;-3.70;64.90;;;;;;5086249;28;20075;-91
2024/01/10 03:14:15;;;;;;;22.85;13.70;;;-3.60;64.80;;;;;;5091294;28;20020;-93
2024/01/10 03:16:40;;;;;;;22.42;14.30;;;-3.70;65.20;;;;;;5060946;28;20096;-91
2024/01/10 03:19:06;;;;;;;25.15;13.75;;;-3.70;65.40;;;;;;5076852;28;20013;-92
2024/01/10 03:21:32;;;;;;;21.30;14.35;;;-3.60;65.40;;;;;;5059140;28;20035;-90
2024/01/10 03:23:59;;;;;;;30.50;14.93;;;-3.60;65.60;;;;;;5076897;28;20021;-92
2024/01/10 03:26:27;;;;;;;30.77;14.10;;;-3.60;64.70;;;;;;5075754;28;20032;-93
2024/01/10 03:28:54;;;;;;;27.73;13.88;;;-3.60;64.60;;;;;;5074653;28;20032;-92
2024/01/10 03:31:20;;;;;;;21.60;12.63;;;-3.70;65.10;;;;;;5073892;28;20009;-93
2024/01/10 03:33:46;;;;;;;25.17;14.15;;;-3.60;65.90;;;;;;5075791;28;20036;-91
2024/01/10 03:36:14;;;;;;;29.30;14.55;;;-3.60;64.60;;;;;;5056512;28;20005;-93
2024/01/10 03:38:40;;;;;;;;;;;-3.60;65.10;;;;;;5057339;28;20017;-90
2024/01/10 03:41:06;;;;;;;20.50;14.20;;;-3.60;65.00;;;;;;5091105;28;19913;-91
2024/01/10 03:43:32;;;;;;;25.73;14.20;;;-3.70;64.80;;;;;;5056781;28;20021;-90
2024/01/10 03:45:58;;;;;;;18.70;12.38;;;-3.60;65.30;;;;;;5056705;28;20021;-92
2024/01/10 03:48:23;;;;;;;25.58;13.80;;;-3.60;65.70;;;;;;5074506;28;20032;-92
2024/01/10 03:50:53;;;;;;;29.10;15.18;;;-3.60;65.30;;;;;;5069398;28;20008;-93
2024/01/10 03:53:18;;;;;;;25.83;14.52;;;-3.60;65.00;;;;;;5078232;28;20095;-91
2024/01/10 03:55:44;;;;;;;23.20;14.57;;;-3.50;65.20;;;;;;5078124;28;20025;-90
2024/01/10 03:58:09;;;;;;;22.48;15.45;;;-3.60;65.10;;;;;;5077721;28;20032;-91
2024/01/10 04:00:35;;;;;;;22.48;14.15;;;-3.50;65.90;;;;;;5079518;28;20070;-94
2024/01/10 04:03:01;;;;;;;27.35;16.40;;;-3.60;66.10;;;;;;5099167;28;20019;-90
2024/01/10 04:05:28;;;;;;;24.30;14.82;;;-3.50;65.40;;;;;;5083381;28;20107;-92
2024/01/10 04:07:54;;;;;;;25.13;14.57;;;-3.50;65.60;;;;;;5094057;28;20088;-91
2024/01/10 04:10:20;;;;;;;29.98;14.48;;;-3.50;65.90;;;;;;5076530;28;20025;-89
2024/01/10 04:12:46;;;;;;;24.05;13.63;;;-3.60;65.60;;;;;;5058545;28;20033;-91
2024/01/10 04:15:12;;;;;;;27.15;15.27;;;-3.60;66.20;;;;;;5076915;28;20032;-91
2024/01/10 04:17:38;;;;;;;27.55;14.82;;;-3.60;65.50;;;;;;5059374;28;20017;-90
2024/01/10 04:20:08;;;;;;;24.60;14.82;;;-3.60;66.00;;;;;;5075541;28;20009;-88
2024/01/10 04:22:34;;;;;;;25.00;15.43;;;-3.60;66.20;;;;;;5076135;28;20028;-91
2024/01/10 04:25:02;;;;;;;23.05;14.05;;;-3.60;66.20;;;;;;5075191;28;20017;-90
2024/01/10 04:27:29;;;;;;;27.98;15.10;;;-3.60;66.60;;;;;;5058151;28;20029;-93
2024/01/10 04:29:54;;;;;;;27.30;16.00;;;-3.60;66.80;;;;;;5095203;28;20074;-94
2024/01/10 04:32:20;;;;;;;24.00;14.93;;;-3.60;66.50;;;;;;5071398;28;20024;-93
2024/01/10 04:34:47;;;;;;;25.63;17.48;;;-3.60;66.20;;;;;;5076253;28;20017;-90
2024/01/10 04:37:14;;;;;;;25.60;15.52;;;-3.60;66.40;;;;;;5074845;28;20017;-91
2024/01/10 04:39:42;;;;;;;25.38;14.45;;;-3.70;66.70;;;;;;5057673;28;20108;-90
2024/01/10 04:42:08;;;;;;;;;;;-3.60;66.30;;;;;;5063269;28;20016;-89
2024/01/10 04:44:34;;;;;;;23.65;14.13;;;-3.70;66.60;;;;;;5057517;28;19976;-92
2024/01/10 04:47:00;;;;;;;24.48;13.13;;;-3.70;66.40;;;;;;5061095;28;20043;-90
2024/01/10 04:49:26;;;;;;;24.58;13.80;;;-3.60;66.20;;;;;;5075151;28;20057;-91
2024/01/10 04:51:51;;;;;;;29.73;15.20;;;-3.70;66.30;;;;;;5076149;28;20012;-93
2024/01/10 04:54:17;;;;;;;26.05;15.70;;;-3.70;66.80;;;;;;5091857;28;20039;-91
2024/01/10 04:56:43;;;;;;;29.38;15.18;;;-3.70;66.60;;;;;;5098306;28;20063;-93
2024/01/10 04:59:08;;;;;;;30.27;15.40;;;-3.70;66.60;;;;;;5096526;28;20040;-90
2024/01/10 05:01:34;;;;;;;27.98;14.38;;;-3.70;66.40;;;;;;5067814;28;20031;-93
2024/01/10 05:04:00;;;;;;;27.40;15.55;;;-3.80;66.50;;;;;;5070541;28;20025;-90
2024/01/10 05:06:26;;;;;;;28.15;14.45;;;-3.70;66.70;;;;;;5070210;28;20722;-90
2024/01/10 05:08:52;;;;;;;31.08;18.52;;;-3.70;66.60;;;;;;5069215;28;20085;-92
2024/01/10 05:11:17;;;;;;;27.75;15.68;;;-3.70;67.10;;;;;;5079137;28;20083;-92
2024/01/10 05:13:43;;;;;;;29.33;17.80;;;-3.70;66.50;;;;;;5066140;28;20116;-91
2024/01/10 05:16:09;;;;;;;33.13;17.95;;;-3.70;66.80;;;;;;5067039;28;20017;-91
2024/01/10 05:18:35;;;;;;;46.25;24.23;;;-3.70;66.90;;;;;;5082666;28;20024;-91
2024/01/10 05:21:01;;;;;;;47.60;23.48;;;-3.80;67.20;;;;;;5062023;28;20032;-91
2024/01/10 05:23:27;;;;;;;33.33;20.52;;;-3.70;67.30;;;;;;5089748;28;20024;-94
2024/01/10 05:25:54;;;;;;;24.45;14.43;;;-3.70;67.70;;;;;;5086686;28;20020;-92
2024/01/10 05:28:19;;;;;;;21.88;15.00;;;-3.80;67.00;;;;;;5073748;28;20012;-93
2024/01/10 05:30:45;;;;;;;25.08;13.82;;;-3.80;66.70;;;;;;5064094;28;20044;-92
2024/01/10 05:33:11;;;;;;;26.17;15.50;;;-3.80;67.10;;;;;;5082272;28;20054;-93
2024/01/10 05:35:40;;;;;;;35.38;18.35;;;-3.80;67.60;;;;;;5078132;28;20041;-92
2024/01/10 05:38:08;;;;;;;29.67;16.05;;;-3.80;67.20;;;;;;5089732;28;19997;-93
2024/01/10 05:40:37;;;;;;;25.45;16.63;;;-3.80;67.20;;;;;;5093061;28;20000;-94
2024/01/10 05:43:02;;;;;;;27.60;16.02;;;-3.80;67.30;;;;;;5088637;28;20084;-92
2024/01/10 05:45:31;;;;;;;29.23;15.48;;;-3.80;67.70;;;;;;5073258;28;20036;-92
2024/01/10 05:47:56;;;;;;;;;;;-3.80;68.60;;;;;;5089357;28;20044;-93
2024/01/10 05:50:22;;;;;;;28.48;15.48;;;-3.80;67.90;;;;;;5096395;28;19923;-94
2024/01/10 05:52:48;;;;;;;29.33;15.68;;;-3.90;67.60;;;;;;5073792;28;20035;-91
2024/01/10 05:55:13;;;;;;;31.98;18.70;;;-3.90;68.20;;;;;;5081994;28;20078;-93
2024/01/10 05:57:39;;;;;;;29.30;19.58;;;-4.00;68.50;;;;;;5075199;28;20035;-93
2024/01/10 06:00:09;;;;;;;23.90;14.65;;;-4.00;68.90;;;;;;5069990;28;20028;-91
2024/01/10 06:02:41;;;;;;;28.50;16.17;;;-4.00;69.20;;;;;;5051129;28;20068;-92
2024/01/10 06:05:10;;;;;;;28.13;17.20;;;-4.00;69.80;;;;;;5045538;28;20037;-92
2024/01/10 06:07:41;;;;;;;33.58;18.35;;;-4.10;70.20;;;;;;5067661;28;20036;-92
2024/01/10 06:10:07;;;;;;;23.30;15.55;;;-4.10;70.00;;;;;;5070747;28;20064;-92
2024/01/10 06:12:33;;;;;;;33.05;18.52;;;-4.10;70.20;;;;;;5063237;28;20096;-94
2024/01/10 06:14:59;;;;;;;28.77;16.40;;;-4.10;70.50;;;;;;5085807;28;20027;-92
2024/01/10 06:17:24;;;;;;;28.25;18.33;;;-4.10;70.90;;;;;;5078321;28;20051;-94
2024/01/10 06:19:51;;;;;;;36.17;17.20;;;-4.10;70.80;;;;;;5073952;28;20043;-92
2024/01/10 06:22:17;;;;;;;49.38;27.48;;;-4.10;70.80;;;;;;5071905;28;20033;-90
2024/01/10 06:24:43;;;;;;;36.00;19.52;;;-4.20;70.90;;;;;;5086331;28;20142;-93
2024/01/10 06:27:09;;;;;;;27.80;15.88;;;-4.10;71.30;;;;;;5071693;28;20016;-92
2024/01/10 06:29:36;;;;;;;28.90;15.73;;;-4.20;71.30;;;;;;5064191;28;20098;-94
2024/01/10 06:32:06;;;;;;;30.90;16.77;;;-4.20;71.50;;;;;;5073037;28;20009;-92
2024/01/10 06:34:41;;;;;;;31.63;19.58;;;-4.20;71.50;;;;;;5083891;28;20024;-92
2024/01/10 06:37:09;;;;;;;;;;;-4.10;71.80;;;;;;5083982;28;20028;-92
2024/01/10 06:39:35;;;;;;;23.63;14.75;;;-4.20;71.90;;;;;;5091418;28;19974;-96
2024/01/10 06:42:03;;;;;;;28.02;16.88;;;-4.20;72.10;;;;;;5090720;28;20024;-96
2024/01/10 06:44:29;;;;;;;29.75;17.58;;;-4.30;72.00;;;;;;5054822;28;20044;-93
2024/01/10 06:46:55;;;;;;;24.58;14.70;;;-4.30;73.10;;;;;;5053966;28;20029;-93
2024/01/10 06:49:21;;;;;;;28.95;16.20;;;-4.30;72.30;;;;;;5044980;28;20052;-93
2024/01/10 06:51:46;;;;;;;23.40;15.98;;;-4.30;72.40;;;;;;5059825;28;20108;-91
2024/01/10 06:54:13;;;;;;;27.90;15.60;;;-4.40;72.20;;;;;;5058960;28;20029;-92
2024/01/10 06:56:41;;;;;;;26.40;16.27;;;-4.40;72.60;;;;;;5051528;28;20060;-92
2024/01/10 06:59:07;;;;;;;28.92;17.23;;;-4.40;72.50;;;;;;5052495;28;20040;-94
2024/01/10 07:01:32;;;;;;;28.85;16.08;;;-4.40;72.50;;;;;;5062869;28;20068;-93
2024/01/10 07:03:58;;;;;;;28.40;14.45;;;-4.40;72.90;;;;;;5053376;28;20149;-95
2024/01/10 07:06:24;;;;;;;29.00;14.23;;;-4.40;73.10;;;;;;5049676;28;20029;-92
2024/01/10 07:08:50;;;;;;;36.10;18.73;;;-4.40;73.20;;;;;;5064070;28;20051;-93
2024/01/10 07:11:17;;;;;;;27.10;17.23;;;-4.40;73.20;;;;;;5061438;28;20098;-93
2024/01/10 07:13:43;;;;;;;35.28;21.73;;;-4.50;73.00;;;;;;5068990;28;20021;-91
2024/01/10 07:16:09;;;;;;;26.75;18.70;;;-4.50;73.10;;;;;;5074523;28;20031;-91
2024/01/10 07:18:35;;;;;;;32.03;16.05;;;-4.50;73.60;;;;;;5071947;28;20025;-95
2024/01/10 07:21:01;;;;;;;30.85;16.13;;;-4.50;73.60;;;;;;5069929;28;20017;-89
2024/01/10 07:23:27;;;;;;;20.27;14.25;;;-4.50;73.80;;;;;;5073660;28;20071;-93
2024/01/10 07:25:53;;;;;;;28.73;18.52;;;-4.50;74.10;;;;;;5061696;28;20507;-94
2024/01/10 07:28:19;;;;;;;28.50;15.27;;;-4.50;74.00;;;;;;5042657;28;20028;-93
2024/01/10 07:30:45;;;;;;;24.65;15.85;;;-4.50;74.20;;;;;;5042129;28;20040;-92
2024/01/10 07:33:11;;;;;;;30.92;17.17;;;-4.50;74.30;;;;;;5072995;28;20068;-90
2024/01/10 07:35:38;;;;;;;29.58;15.98;;;-4.50;74.30;;;;;;5061023;28;20025;-93
2024/01/10 07:38:07;;;;;;;29.05;17.65;;;-4.50;74.50;;;;;;5061569;28;20022;-91
2024/01/10 07:40:33;;;;;;;27.13;16.23;;;-4.60;74.10;;;;;;5064981;28;20036;-92
2024/01/10 07:42:58;;;;;;;30.17;18.08;;;-4.50;74.40;;;;;;5065177;28;20024;-91
2024/01/10 07:45:24;;;;;;;32.10;17.95;;;-4.50;74.10;;;;;;5054574;28;20066;-93
2024/01/10 07:47:50;;;;;;;26.83;17.13;;;-4.50;73.90;;;;;;5067895;28;20035;-91
2024/01/10 07:50:15;;;;;;;32.80;13.68;;;-4.50;74.20;;;;;;5084438;28;20416;-91
2024/01/10 07:52:43;;;;;;;29.95;16.60;;;-4.50;74.30;;;;;;5084623;28;20027;-90
2024/01/10 07:55:09;;;;;;;28.58;17.08;;;-4.50;74.50;;;;;;5074768;28;20021;-92
2024/01/10 07:57:36;;;;;;;25.17;16.80;;;-4.50;74.40;;;;;;5078829;28;20021;-91
2024/01/10 08:00:04;;;;;;;26.50;12.82;;;-4.50;74.60;;;;;;5044593;28;20368;-91
2024/01/10 08:02:33;;;;;;;22.92;15.85;;;-4.50;74.60;;;;;;5063776;28;20051;-92
2024/01/10 08:05:09;;;;;;;34.55;15.27;;;-4.50;74.60;;;;;;5053874;28;20017;-92
2024/01/10 08:07:38;;;;;;;28.75;19.85;;;-4.50;74.60;;;;;;5064166;28;20017;-92
2024/01/10 08:10:09;;;;;;;32.90;15.05;;;-4.40;74.60;;;;;;5045029;28;20391;-91
2024/01/10 08:12:44;;;;;;;29.52;16.65;;;-4.40;74.40;;;;;;5063885;28;20021;-92
2024/01/10 08:15:10;;;;;;;29.17;18.10;;;-4.40;74.10;;;;;;5078101;28;20028;-91
2024/01/10 08:17:38;;;;;;;27.95;17.63;;;-4.40;73.80;;;;;;5083653;28;20024;-93
2024/01/10 08:20:06;;;;;;;;;;;-4.40;73.80;;;;;;5082643;28;20067;-91
2024/01/10 08:22:31;;;;;;;28.63;17.27;;;-4.30;74.10;;;;;;5061714;28;20487;-91
2024/01/10 08:24:58;;;;;;;30.25;18.23;;;-4.30;74.00;;;;;;5048907;28;20060;-92
2024/01/10 08:27:23;;;;;;;25.50;16.90;;;-4.20;73.50;;;;;;5061403;28;20024;-92
2024/01/10 08:29:49;;;;;;;30.67;17.30;;;-4.20;73.70;;;;;;5074885;28;20025;-91
2024/01/10 08:32:17;;;;;;;29.23;17.15;;;-4.20;73.10;;;;;;5082553;28;20082;-91
2024/01/10 08:34:44;;;;;;;30.88;15.18;;;-4.10;73.10;;;;;;5064244;28;20051;-92
2024/01/10 08:37:10;;;;;;;29.77;16.42;;;-4.00;72.90;;;;;;5063296;28;20048;-92
2024/01/10 08:39:36;;;;;;;29.08;16.95;;;-3.90;72.80;;;;;;5062775;28;20021;-93
2024/01/10 08:42:01;;;;;;;30.45;17.50;;;-3.90;72.40;;;;;;5051214;28;20027;-91
2024/01/10 08:44:27;;;;;;;31.10;16.95;;;-3.90;72.10;;;;;;5082932;28;20025;-91
2024/01/10 08:46:53;;;;;;;28.10;15.52;;;-3.80;72.10;;;;;;5083332;28;20024;-92
2024/01/10 08:49:19;;;;;;;32.08;17.63;;;-3.70;71.80;;;;;;5073768;28;20021;-89
2024/01/10 08:51:46;;;;;;;31.75;17.75;;;-3.70;71.40;;;;;;5070984;28;20025;-91
2024/01/10 08:54:16;;;;;;;36.78;16.30;;;-3.60;71.30;;;;;;5062499;28;20479;-93
2024/01/10 08:56:43;;;;;;;26.70;17.02;;;-3.60;70.90;;;;;;5070796;28;20047;-90
2024/01/10 08:59:12;;;;;;;28.75;16.95;;;-3.50;70.90;;;;;;5065224;28;20120;-90
2024/01/10 09:01:43;;;;;;;25.73;14.55;;;-3.50;70.40;;;;;;5065362;28;20029;-90
2024/01/10 09:04:13;;;;;;;31.92;17.95;;;-3.40;70.40;;;;;;5065171;28;20021;-91
2024/01/10 09:06:39;;;;;;;31.90;17.35;;;-3.40;70.50;;;;;;5047816;28;20040;-90
2024/01/10 09:09:06;;;;;;;30.10;15.75;;;-3.40;70.20;;;;;;5063589;28;20036;-91
2024/01/10 09:11:36;;;;;;;27.65;15.93;;;-3.30;69.90;;;;;;5047353;28;20025;-90
2024/01/10 09:14:08;;;;;;;32.83;17.00;;;-3.30;69.60;;;;;;5047877;28;20025;-90
2024/01/10 09:16:36;;;;;;;32.53;16.85;;;-3.20;69.20;;;;;;5048009;28;20514;-92
2024/01/10 09:19:03;;;;;;;25.13;16.38;;;-3.10;69.20;;;;;;5046393;28;20044;-91
2024/01/10 09:21:30;;;;;;;26.65;16.20;;;-3.10;68.90;;;;;;5047962;28;20027;-92
2024/01/10 09:23:57;;;;;;;30.52;16.15;;;-3.00;68.70;;;;;;5064630;28;20074;-90
2024/01/10 09:26:26;;;;;;;34.35;20.50;;;-2.90;68.60;;;;;;5048439;28;20025;-89
2024/01/10 09:28:52;;;;;;;28.20;18.15;;;-2.90;67.70;;;;;;5047130;28;20025;-90
2024/01/10 09:31:18;;;;;;;31.45;17.70;;;-2.80;67.70;;;;;;5063954;28;20035;-90
2024/01/10 09:33:47;;;;;;;67.10;27.23;;;-2.70;67.70;;;;;;5046399;28;20047;-91
2024/01/10 09:36:14;;;;;;;62.95;26.70;;;-2.60;67.80;;;;;;5046417;28;20108;-91
2024/01/10 09:38:40;;;;;;;114.13;40.58;;;-2.60;67.10;;;;;;5047516;28;20025;-90
2024/01/10 09:41:14;;;;;;;34.90;19.85;;;-2.50;66.90;;;;;;5046690;28;20021;-90
2024/01/10 09:43:40;;;;;;;37.03;18.73;;;-2.50;66.60;;;;;;5047034;28;20035;-90
2024/01/10 09:46:10;;;;;;;31.48;19.30;;;-2.40;66.30;;;;;;5066537;28;20025;-90
2024/01/10 09:48:36;;;;;;;41.63;19.25;;;-2.30;66.40;;;;;;5066062;28;20029;-90
2024/01/10 09:51:02;;;;;;;34.83;18.55;;;-2.30;66.00;;;;;;5079984;28;20080;-90
2024/01/10 09:53:31;;;;;;;35.28;20.08;;;-2.30;65.50;;;;;;5054819;28;20024;-88
2024/01/10 09:55:59;;;;;;;32.58;20.48;;;-2.20;64.80;;;;;;5082262;28;20440;-90
2024/01/10 09:58:26;;;;;;;25.38;16.58;;;-2.10;65.30;;;;;;5045815;28;20021;-89
2024/01/10 10:00:52;;;;;;;34.85;20.40;;;-2.10;65.00;;;;;;5068588;28;20020;-90
2024/01/10 10:03:22;;;;;;;32.55;19.30;;;-1.90;64.80;;;;;;5042525;28;20479;-91
2024/01/10 10:05:48;;;;;;;30.55;17.95;;;-1.90;63.80;;;;;;5054973;28;20088;-91
2024/01/10 10:08:21;;;;;;;32.00;18.48;;;-1.90;63.90;;;;;;5064005;28;20483;-89
2024/01/10 10:10:49;;;;;;;37.03;20.42;;;-1.90;64.00;;;;;;5063409;28;20062;-88
2024/01/10 10:13:28;;;;;;;36.22;23.70;;;-1.80;63.40;;;;;;5045845;28;20033;-90
2024/01/10 10:16:04;;;;;;;42.55;20.35;;;-1.60;63.90;;;;;;5047267;28;20029;-90
2024/01/10 10:18:32;;;;;;;34.33;19.65;;;-1.60;62.10;;;;;;5045484;28;20025;-90
2024/01/10 10:21:24;;;;;;;30.48;17.73;;;-1.50;62.40;;;;;;5063403;28;20104;-89
2024/01/10 10:24:01;;;;;;;40.67;17.10;;;-1.40;62.00;;;;;;5043534;28;20455;-89
2024/01/10 10:26:29;;;;;;;32.53;18.13;;;-1.40;61.10;;;;;;5046621;28;20029;-90
2024/01/10 10:28:55;;;;;;;36.40;20.52;;;-1.40;61.00;;;;;;5046250;28;20029;-90
2024/01/10 10:31:24;;;;;;;30.70;18.02;;;-1.30;61.20;;;;;;5063842;28;20021;-91
2024/01/10 10:33:51;;;;;;;37.17;18.48;;;-1.00;60.60;;;;;;5044871;28;20058;-90
2024/01/10 10:36:17;;;;;;;40.33;20.63;;;-0.80;59.30;;;;;;5063258;28;20096;-91
2024/01/10 10:38:43;;;;;;;32.38;19.45;;;-0.70;58.30;;;;;;5062525;28;20022;-90
2024/01/10 10:41:12;;;;;;;40.15;16.88;;;-0.50;57.90;;;;;;5063020;28;20017;-91
2024/01/10 10:43:42;;;;;;;43.17;19.38;;;-0.30;56.00;;;;;;5065579;28;20097;-91
2024/01/10 10:46:14;;;;;;;34.67;18.42;;;-0.10;55.80;;;;;;5065421;28;20064;-89
2024/01/10 10:48:43;;;;;;;36.78;22.75;;;0.10;54.50;;;;;;5063661;28;20514;-91
2024/01/10 10:51:14;;;;;;;30.73;19.52;;;0.00;55.10;;;;;;5063205;28;20036;-90
2024/01/10 10:53:45;;;;;;;39.20;20.98;;;0.20;53.80;;;;;;5063952;28;20025;-91
2024/01/10 10:56:12;;;;;;;34.22;18.20;;;0.40;53.20;;;;;;5063929;28;20024;-90
2024/01/10 10:58:44;;;;;;;35.08;20.02;;;0.50;52.90;;;;;;5061767;28;20092;-89
2024/01/10 11:01:12;;;;;;;35.83;20.73;;;0.70;52.30;;;;;;5062839;28;20020;-90
2024/01/10 11:03:42;;;;;;;40.80;19.55;;;0.80;52.40;;;;;;5071065;28;20021;-91
2024/01/10 11:06:08;;;;;;;40.65;22.02;;;0.80;51.30;;;;;;5056825;28;20021;-93
2024/01/10 11:08:49;;;;;;;36.78;20.77;;;0.70;51.70;;;;;;5057719;28;20455;-93
2024/01/10 11:11:26;;;;;;;38.30;20.15;;;1.00;51.20;;;;;;5076021;28;20052;-92
2024/01/10 11:13:54;;;;;;;36.90;20.88;;;1.20;51.50;;;;;;5063860;28;20036;-91
2024/01/10 11:16:55;;;;;;;41.70;19.73;;;1.30;49.70;;;;;;5061770;28;20035;-91
2024/01/10 11:19:53;;;;;;;40.25;20.45;;;1.30;49.60;;;;;;5063314;28;20037;-92
2024/01/10 11:22:40;;;;;;;33.83;21.17;;;1.20;49.90;;;;;;5016708;28;20072;-93
2024/01/10 11:25:06;;;;;;;40.22;21.67;;;1.30;49.60;;;;;;5048324;28;20025;-90
2024/01/10 11:27:32;;;;;;;35.65;19.88;;;1.40;49.30;;;;;;5058452;28;20029;-92
2024/01/10 11:29:58;;;;;;;36.80;21.55;;;1.50;49.20;;;;;;5063774;28;20079;-92
2024/01/10 11:32:24;;;;;;;40.75;18.85;;;1.70;49.00;;;;;;5067257;28;20016;-90
2024/01/10 11:34:53;;;;;;;40.22;21.10;;;2.00;47.60;;;;;;5048726;28;20560;-90
2024/01/10 11:37:19;;;;;;;39.00;20.65;;;2.20;46.80;;;;;;5061957;28;20072;-92
2024/01/10 11:39:45;;;;;;;43.00;23.40;;;2.30;46.20;;;;;;5063744;28;20016;-91
2024/01/10 11:42:11;;;;;;;41.35;22.58;;;2.20;46.40;;;;;;5069590;28;20132;-91
2024/01/10 11:44:51;;;;;;;43.63;23.42;;;2.50;46.30;;;;;;5066485;28;20086;-92
2024/01/10 11:47:20;;;;;;;43.67;22.63;;;2.90;44.90;;;;;;5049515;28;20031;-90
2024/01/10 11:49:58;;;;;;;37.75;21.35;;;3.00;44.40;;;;;;5049108;28;20038;-91
2024/01/10 11:52:32;;;;;;;40.28;20.83;;;2.90;43.90;;;;;;5064700;28;20361;-91
2024/01/10 11:55:00;;;;;;;44.85;22.65;;;2.70;44.70;;;;;;5040249;28;20035;-90
2024/01/10 11:57:27;;;;;;;;;;;2.80;44.40;;;;;;5063619;28;20021;-90
2024/01/10 11:59:55;;;;;;;43.00;22.52;;;3.30;43.60;;;;;;5076153;28;19912;-92
2024/01/10 12:02:25;;;;;;;37.00;21.55;;;3.20;42.60;;;;;;5076112;28;20077;-92
2024/01/10 12:04:50;;;;;;;41.03;20.85;;;3.30;43.20;;;;;;5072624;28;20448;-92
2024/01/10 12:07:18;;;;;;;35.60;20.63;;;3.60;42.60;;;;;;5066209;28;20088;-93
2024/01/10 12:09:45;;;;;;;46.72;24.15;;;3.90;41.90;;;;;;5057414;28;20499;-91
2024/01/10 12:12:12;;;;;;;41.70;21.92;;;3.90;41.40;;;;;;5061692;28;20056;-93
2024/01/10 12:14:39;;;;;;;43.35;23.38;;;3.80;40.60;;;;;;5066326;28;20092;-93
2024/01/10 12:17:07;;;;;;;40.95;23.10;;;3.90;41.10;;;;;;5048249;28;20563;-91
2024/01/10 12:19:35;;;;;;;42.33;22.33;;;3.90;41.80;;;;;;5048597;28;20047;-91
2024/01/10 12:22:01;;;;;;;41.40;23.13;;;4.10;41.00;;;;;;5065731;28;20025;-91
2024/01/10 12:24:31;;;;;;;43.90;24.10;;;4.30;40.00;;;;;;5071379;28;20051;-90
2024/01/10 12:26:57;;;;;;;41.60;23.13;;;4.40;40.00;;;;;;5061967;28;20036;-91
2024/01/10 12:29:26;;;;;;;43.00;23.65;;;4.30;40.10;;;;;;5066361;28;20025;-91
2024/01/10 12:31:53;;;;;;;46.30;24.05;;;4.70;39.90;;;;;;5061813;28;20028;-92